This is the latest recevied weather packets stored in our database for station/object DB0TGO-10. If no packets are shown the sender has not sent any weather packets the latest 10 day(s).
| Time | Temp. | Humidity | Pressure | Rain* | Wind** | Luminosity | Snow |
|---|---|---|---|---|---|---|---|
| 1777992400 | 20.56° C | 67% | 1008.8 hPa | 0 mm | - | - | - |
| 1777989348 | 21.11° C | 65% | 1008.9 hPa | 0 mm | - | - | - |
| 1777986460 | 21.11° C | 62% | 1009.1 hPa | 0 mm | - | - | - |
| 1777983070 | 19.44° C | 71% | 1009.7 hPa | 0 mm | - | - | - |
| 1777979899 | 20° C | 74% | 1009.8 hPa | 0 mm | - | - | - |
| 1777976630 | 18.33° C | 81% | 1010.1 hPa | 0 mm | - | - | - |
| 1777970200 | 16.11° C | 84% | 1010.2 hPa | 0 mm | - | - | - |
| 1777966780 | 16.11° C | 79% | 1010.4 hPa | 0 mm | - | - | - |
| 1777963586 | 15.56° C | 81% | 1010.2 hPa | 0 mm | - | - | - |
| 1777957430 | 13.89° C | 91% | 1010.6 hPa | 0 mm | - | - | - |
| 1777954030 | 13.89° C | 90% | 1011.1 hPa | 0 mm | - | - | - |
| 1777947815 | 14.44° C | 84% | 1011.5 hPa | 0 mm | - | - | - |
| 1777941400 | 15° C | 81% | 1011.7 hPa | 0 mm | - | - | - |
| 1777938280 | 15° C | 81% | 1012.1 hPa | 0 mm | - | - | - |
| 1777935450 | 15.56° C | 80% | 1012.4 hPa | 0 mm | - | - | - |
| 1777932555 | 15.56° C | 80% | 1012.5 hPa | 0 mm | - | - | - |
| 1777910675 | 22.78° C | 49% | 1012.1 hPa | 0 mm | - | - | - |
| 1777907788 | 23.89° C | 50% | 1012.2 hPa | 0 mm | - | - | - |
| 1777904641 | 22.78° C | 51% | 1012.6 hPa | 0 mm | - | - | - |
| 1777901705 | 22.22° C | 53% | 1012.7 hPa | 0 mm | - | - | - |
| 1777898875 | 21.67° C | 58% | 1013 hPa | 0 mm | - | - | - |
| 1777895760 | 22.22° C | 51% | 1012.9 hPa | 0 mm | - | - | - |
| 1777892795 | 22.22° C | 53% | 1013 hPa | 0 mm | - | - | - |
| 1777889621 | 21.67° C | 55% | 1013.4 hPa | 0 mm | - | - | - |
| 1777883134 | 20.56° C | 64% | 1013.4 hPa | 0 mm | - | - | - |
* Rain latest hour (hover to see other rain measurements)
** Current wind speed in m/s (hover to see current wind gust speed)